Time;durP1;ratioP1;P1;durP2;ratioP2;P2;SDS_P1;SDS_P2;PMS_P1;PMS_P2;Temp;Humidity;BMP_temperature;BMP_pressure;BME280_temperature;BME280_humidity;BME280_pressure;Samples;Min_cycle;Max_cycle;Signal;HPM_P1;HPM_P2
2021/05/16 00:02:12;;;;;;;2.47;1.33;;;;;;;;;;10372233;28;20058;-86
2021/05/16 00:07:13;;;;;;;2.05;1.13;;;;;;;;;;10371918;28;20571;-86
2021/05/16 00:12:14;;;;;;;4.47;1.30;;;;;;;;;;10371560;28;20057;-86
2021/05/16 00:17:15;;;;;;;2.92;1.40;;;;;;;;;;10372495;28;20389;-86
2021/05/16 00:22:16;;;;;;;3.50;1.60;;;;;;;;;;10371252;28;20137;-86
2021/05/16 00:27:17;;;;;;;3.47;1.52;;;;;;;;;;10372671;28;20053;-86
2021/05/16 00:32:18;;;;;;;4.38;1.63;;;;;;;;;;10372419;28;20076;-86
2021/05/16 00:37:19;;;;;;;4.88;1.80;;;;;;;;;;10369728;28;20041;-86
2021/05/16 00:42:20;;;;;;;3.97;1.73;;;;;;;;;;10370803;28;20026;-86
2021/05/16 01:21:54;;;;;;;4.53;1.90;;;;;;;;;;10425881;28;20092;-87
2021/05/16 01:56:20;;;;;;;7.03;2.40;;;;;;;;;;10331792;28;20050;-86
2021/05/16 02:07:47;;;;;;;5.20;2.10;;;;;;;;;;10417807;28;20041;-86
2021/05/16 02:25:01;;;;;;;5.25;1.90;;;;;;;;;;10331409;28;20034;-87
2021/05/16 04:29:37;;;;;;;4.55;1.70;;;;;;;;;;10257800;28;20031;-87
2021/05/16 05:09:30;;;;;;;6.13;2.15;;;;;;;;;;10175128;29;20103;-86
2021/05/16 05:15:07;;;;;;;6.45;2.30;;;;;;;;;;10181948;29;20051;-86
2021/05/16 05:20:51;;;;;;;7.32;2.60;;;;;;;;;;10176868;29;20066;-87
2021/05/16 05:55:40;;;;;;;7.55;2.97;;;;;;;;;;10293809;28;20417;-87
2021/05/16 06:30:57;;;;;;;6.80;2.85;;;;;;;;;;10307404;28;20483;-87
2021/05/16 06:47:57;;;;;;;8.20;3.75;;;;;;;;;;10422230;23;20049;-86
2021/05/16 07:16:26;;;;;;;6.97;3.03;;;;;;;;;;10290979;28;20063;-87
2021/05/16 08:07:04;;;;;;;8.82;2.80;;;;;;;;;;10242058;29;20048;-86
2021/05/16 08:24:21;;;;;;;9.02;2.83;;;;;;;;;;10380516;28;20030;-87
2021/05/16 12:50:13;;;;;;;3.33;1.48;;;;;;;;;;10478331;23;20053;-88
2021/05/16 12:55:26;;;;;;;5.10;1.80;;;;;;;;;;10460070;28;20136;-87
2021/05/16 13:00:48;;;;;;;4.18;1.77;;;;;;;;;;10466595;28;20032;-87
2021/05/16 13:06:01;;;;;;;3.40;1.33;;;;;;;;;;10434248;28;20044;-87
2021/05/16 13:11:13;;;;;;;4.72;1.80;;;;;;;;;;10449523;28;20136;-87
2021/05/16 13:16:15;;;;;;;3.97;1.50;;;;;;;;;;10448853;28;20129;-87
2021/05/16 13:21:18;;;;;;;4.05;1.60;;;;;;;;;;10449780;28;20029;-88
2021/05/16 13:26:43;;;;;;;3.22;1.70;;;;;;;;;;10447807;28;20036;-87
2021/05/16 13:31:50;;;;;;;3.03;1.40;;;;;;;;;;10450189;28;20429;-87
2021/05/16 13:37:02;;;;;;;4.22;1.55;;;;;;;;;;10451220;28;20068;-88
2021/05/16 13:42:03;;;;;;;3.05;1.35;;;;;;;;;;10443369;28;20048;-88
2021/05/16 13:47:10;;;;;;;4.70;1.80;;;;;;;;;;10447304;28;20067;-87
2021/05/16 13:52:14;;;;;;;2.88;1.40;;;;;;;;;;10446858;28;20123;-87
2021/05/16 13:57:30;;;;;;;;;;;;;;;;;;;;;
2021/05/16 14:02:37;;;;;;;3.85;1.60;;;;;;;;;;10466560;28;20025;-86
2021/05/16 14:13:25;;;;;;;4.13;1.38;;;;;;;;;;10469296;28;20048;-86
2021/05/16 14:18:26;;;;;;;3.70;1.33;;;;;;;;;;10453117;28;20045;-85
2021/05/16 14:23:30;;;;;;;2.85;1.00;;;;;;;;;;10452632;28;20033;-86
2021/05/16 14:28:36;;;;;;;2.75;1.08;;;;;;;;;;10451772;28;20483;-86
2021/05/16 14:33:37;;;;;;;4.43;1.20;;;;;;;;;;10446984;28;20033;-85
2021/05/16 14:38:38;;;;;;;2.25;1.10;;;;;;;;;;10443972;28;20082;-85
2021/05/16 14:43:39;;;;;;;4.10;1.33;;;;;;;;;;10445220;28;20109;-87
2021/05/16 14:48:52;;;;;;;3.30;1.27;;;;;;;;;;10448620;28;20472;-86
2021/05/16 14:53:54;;;;;;;2.42;1.27;;;;;;;;;;10440927;28;20417;-87
2021/05/16 14:58:59;;;;;;;3.70;1.30;;;;;;;;;;10444213;28;20037;-88
2021/05/16 15:04:03;;;;;;;3.85;0.95;;;;;;;;;;10449998;28;20075;-87
2021/05/16 15:09:10;;;;;;;1.83;1.00;;;;;;;;;;10442224;28;20122;-86
2021/05/16 15:14:16;;;;;;;2.53;0.98;;;;;;;;;;10457733;28;20128;-86
2021/05/16 15:19:29;;;;;;;2.03;0.98;;;;;;;;;;10456831;28;20067;-87
2021/05/16 15:24:33;;;;;;;2.28;0.98;;;;;;;;;;10473618;28;20037;-87
2021/05/16 15:46:48;;;;;;;2.28;0.80;;;;;;;;;;10490505;28;20037;-86
2021/05/16 15:51:57;;;;;;;1.40;0.80;;;;;;;;;;10479135;28;20033;-86
2021/05/16 15:57:45;;;;;;;1.45;0.85;;;;;;;;;;10477672;28;20033;-87
2021/05/16 16:03:19;;;;;;;;;;;;;;;;;;;;;
2021/05/16 16:08:31;;;;;;;2.03;0.82;;;;;;;;;;10441851;28;20036;-86
2021/05/16 16:13:32;;;;;;;2.30;0.70;;;;;;;;;;10474263;28;20033;-86
2021/05/16 16:18:38;;;;;;;1.83;0.55;;;;;;;;;;10450634;28;20033;-87
2021/05/16 16:23:39;;;;;;;2.45;1.40;;;;;;;;;;10468372;28;20040;-86
2021/05/16 16:28:40;;;;;;;3.33;1.42;;;;;;;;;;10457096;28;20037;-86
2021/05/16 16:33:43;;;;;;;3.70;1.67;;;;;;;;;;10457380;28;20029;-87
2021/05/16 16:38:54;;;;;;;3.78;1.73;;;;;;;;;;10453408;28;20060;-87
2021/05/16 16:43:55;;;;;;;5.35;2.00;;;;;;;;;;10454882;28;20041;-86
2021/05/16 16:48:58;;;;;;;3.75;1.73;;;;;;;;;;10469196;28;20080;-86
2021/05/16 16:53:58;;;;;;;3.80;1.80;;;;;;;;;;10503937;28;20056;-86
2021/05/16 16:58:59;;;;;;;3.17;1.55;;;;;;;;;;10483773;28;20128;-86
2021/05/16 17:04:01;;;;;;;3.42;1.75;;;;;;;;;;10458279;28;20090;-85
2021/05/16 17:09:04;;;;;;;2.95;1.50;;;;;;;;;;10455082;28;20036;-88
2021/05/16 17:14:05;;;;;;;3.70;1.60;;;;;;;;;;10454099;28;20029;-88
2021/05/16 17:19:06;;;;;;;3.20;1.20;;;;;;;;;;10471731;28;20029;-86
2021/05/16 17:24:08;;;;;;;2.92;1.58;;;;;;;;;;10453756;28;20091;-86
2021/05/16 17:29:15;;;;;;;3.78;2.05;;;;;;;;;;10452115;28;20096;-86
2021/05/16 17:34:16;;;;;;;4.93;1.92;;;;;;;;;;10463831;28;20037;-87
2021/05/16 17:39:17;;;;;;;8.18;2.20;;;;;;;;;;10448129;28;20033;-88
2021/05/16 17:44:19;;;;;;;4.22;1.80;;;;;;;;;;10451053;28;20131;-87
2021/05/16 17:49:20;;;;;;;3.38;1.75;;;;;;;;;;10446666;28;20094;-86
2021/05/16 17:54:21;;;;;;;3.00;1.73;;;;;;;;;;10444396;28;20029;-87
2021/05/16 17:59:22;;;;;;;3.60;1.70;;;;;;;;;;10446323;28;20036;-87
2021/05/16 18:04:23;;;;;;;2.38;1.58;;;;;;;;;;10443775;28;20048;-86
2021/05/16 18:09:24;;;;;;;3.20;1.50;;;;;;;;;;10445363;28;20064;-86
2021/05/16 18:14:25;;;;;;;3.97;2.20;;;;;;;;;;10441900;28;20041;-86
2021/05/16 18:19:26;;;;;;;3.35;2.20;;;;;;;;;;10461174;28;20021;-87
2021/05/16 18:24:27;;;;;;;4.65;2.70;;;;;;;;;;10441003;28;20457;-85
2021/05/16 18:29:28;;;;;;;4.10;2.25;;;;;;;;;;10440993;28;20174;-87
2021/05/16 18:34:29;;;;;;;3.40;1.90;;;;;;;;;;10443450;28;20037;-86
2021/05/16 18:39:30;;;;;;;3.45;1.92;;;;;;;;;;10444779;28;20049;-87
2021/05/16 18:44:31;;;;;;;6.00;3.03;;;;;;;;;;10450148;28;20037;-87
2021/05/16 18:50:10;;;;;;;4.90;2.97;;;;;;;;;;10449566;23;20531;-87
2021/05/16 18:55:37;;;;;;;5.88;3.50;;;;;;;;;;10367062;28;20060;-88
